Terminal Aerodrome Forecast
Issued by NWS Northern Indiana

Home | Current Version | Previous Version | Graphics & Text | Print | Product List | Glossary On
Versions: 1 2 3 4 5 6 7 8 9 10 11
000
FTUS43 KIWX 241500 AAA
TAFFWA
TAF AMD
KFWA 241545Z 2416/2512 30007KT 2SM -RA BR OVC004
     FM242200 27015G22KT 3SM -RA BR OVC007
     FM250100 26017G30KT 3SM -RASN OVC010
     FM250300 26014G26KT 2SM -SN BR OVC009=

USA.gov is the U.S. government's official web portal to all federal, state and local government web resources and services.